Time;durP1;ratioP1;P1;durP2;ratioP2;P2;SDS_P1;SDS_P2;PMS_P1;PMS_P2;Temp;Humidity;BMP_temperature;BMP_pressure;BME280_temperature;BME280_humidity;BME280_pressure;Samples;Min_cycle;Max_cycle;Signal;HPM_P1;HPM_P2
2022/06/02 00:02:01;;;;;;;10.27;5.43;;;;;;;;;;4921159;29;20044;-72
2022/06/02 00:04:34;;;;;;;9.27;5.63;;;;;;;;;;4920972;29;20083;-72
2022/06/02 00:07:03;;;;;;;12.55;5.93;;;;;;;;;;4921161;29;20044;-72
2022/06/02 00:09:29;;;;;;;11.15;5.38;;;;;;;;;;4920798;29;20147;-72
2022/06/02 00:12:04;;;;;;;8.98;5.30;;;;;;;;;;4920688;29;20360;-72
2022/06/02 00:14:40;;;;;;;9.90;5.15;;;;;;;;;;4921028;29;20059;-72
2022/06/02 00:17:10;;;;;;;12.77;5.82;;;;;;;;;;4921222;29;20127;-72
2022/06/02 00:19:45;;;;;;;15.50;6.00;;;;;;;;;;4920366;29;20044;-72
2022/06/02 00:22:24;;;;;;;9.55;6.15;;;;;;;;;;4920897;29;20047;-72
2022/06/02 00:24:53;;;;;;;13.23;5.68;;;;;;;;;;4920466;29;20044;-72
2022/06/02 00:27:27;;;;;;;14.23;5.82;;;;;;;;;;4921595;29;20070;-72
2022/06/02 00:29:59;;;;;;;10.23;6.10;;;;;;;;;;4920525;29;20040;-72
2022/06/02 00:32:43;;;;;;;14.18;6.03;;;;;;;;;;4920842;29;20044;-72
2022/06/02 00:35:15;;;;;;;10.25;5.55;;;;;;;;;;4921004;29;20077;-72
2022/06/02 00:37:46;;;;;;;12.45;6.32;;;;;;;;;;4920696;29;20082;-72
2022/06/02 00:40:13;;;;;;;13.32;6.22;;;;;;;;;;4920287;29;20095;-72
2022/06/02 00:42:52;;;;;;;9.70;5.63;;;;;;;;;;4921051;29;20080;-71
2022/06/02 00:45:19;;;;;;;11.68;5.68;;;;;;;;;;4920333;29;20071;-72
2022/06/02 00:47:48;;;;;;;12.43;6.20;;;;;;;;;;4920238;29;20122;-72
2022/06/02 00:50:23;;;;;;;18.30;6.05;;;;;;;;;;4920871;29;20047;-71
2022/06/02 00:53:08;;;;;;;8.00;5.15;;;;;;;;;;4920672;29;20501;-72
2022/06/02 00:58:59;;;;;;;10.98;5.60;;;;;;;;;;4919743;29;20087;-72
2022/06/02 01:01:28;;;;;;;9.93;5.45;;;;;;;;;;4920389;29;20142;-72
2022/06/02 01:03:55;;;;;;;9.63;6.35;;;;;;;;;;4919763;29;20060;-72
2022/06/02 01:06:23;;;;;;;11.35;6.25;;;;;;;;;;4920518;29;20088;-72
2022/06/02 01:09:08;;;;;;;12.40;5.90;;;;;;;;;;4919204;29;20063;-72
2022/06/02 01:11:34;;;;;;;12.63;6.55;;;;;;;;;;4919699;29;20071;-72
2022/06/02 01:14:18;;;;;;;13.38;6.60;;;;;;;;;;4919623;29;20099;-71
2022/06/02 01:17:03;;;;;;;13.55;7.18;;;;;;;;;;4920131;29;20048;-72
2022/06/02 01:19:41;;;;;;;12.20;6.65;;;;;;;;;;4919132;29;20047;-72
2022/06/02 01:22:26;;;;;;;11.70;6.53;;;;;;;;;;4919992;29;20127;-72
2022/06/02 01:25:11;;;;;;;12.98;6.53;;;;;;;;;;4918971;29;20056;-72
2022/06/02 01:27:40;;;;;;;13.88;7.45;;;;;;;;;;4918779;29;20044;-72
2022/06/02 01:30:21;;;;;;;19.08;6.93;;;;;;;;;;4919380;29;20123;-72
2022/06/02 01:32:47;;;;;;;11.98;7.00;;;;;;;;;;4919207;29;20048;-72
2022/06/02 01:35:26;;;;;;;12.82;6.70;;;;;;;;;;4919563;29;20206;-72
2022/06/02 01:38:03;;;;;;;15.38;7.20;;;;;;;;;;4919152;29;20048;-72
2022/06/02 01:40:34;;;;;;;13.38;7.00;;;;;;;;;;4919742;29;20040;-71
2022/06/02 01:43:12;;;;;;;8.82;6.30;;;;;;;;;;4919301;29;20055;-72
2022/06/02 01:45:54;;;;;;;12.75;6.43;;;;;;;;;;4919673;29;20054;-72
2022/06/02 01:48:38;;;;;;;12.85;6.88;;;;;;;;;;4919182;29;20412;-72
2022/06/02 01:51:19;;;;;;;12.68;7.00;;;;;;;;;;4918776;29;20044;-72
2022/06/02 01:53:45;;;;;;;;;;;;;;;;;;4919203;29;20070;-70
2022/06/02 01:56:18;;;;;;;9.43;6.30;;;;;;;;;;4918688;29;20351;-72
2022/06/02 01:58:53;;;;;;;10.65;6.68;;;;;;;;;;4918871;29;20052;-72
2022/06/02 02:01:19;;;;;;;13.45;6.90;;;;;;;;;;4918750;29;20048;-71
2022/06/02 02:04:04;;;;;;;11.85;6.13;;;;;;;;;;4918696;29;20119;-72
2022/06/02 02:06:30;;;;;;;10.90;6.68;;;;;;;;;;4919328;29;20054;-72
2022/06/02 02:08:57;;;;;;;13.38;7.05;;;;;;;;;;4918319;29;20131;-72
2022/06/02 02:11:33;;;;;;;11.63;6.97;;;;;;;;;;4918428;29;20119;-72
2022/06/02 02:14:06;;;;;;;12.23;6.80;;;;;;;;;;4918781;29;20131;-72
2022/06/02 02:16:48;;;;;;;13.25;7.25;;;;;;;;;;4917855;29;20507;-72
2022/06/02 02:19:15;;;;;;;10.98;6.47;;;;;;;;;;4918472;29;20542;-72
2022/06/02 02:21:44;;;;;;;15.98;6.90;;;;;;;;;;4918555;29;20115;-71
2022/06/02 02:24:22;;;;;;;12.43;7.45;;;;;;;;;;4918114;29;20115;-72
2022/06/02 02:26:54;;;;;;;13.57;6.47;;;;;;;;;;4918449;29;20044;-72
2022/06/02 02:29:37;;;;;;;10.25;6.60;;;;;;;;;;4918336;29;20048;-72
2022/06/02 02:32:05;;;;;;;11.70;7.53;;;;;;;;;;4918347;29;20044;-72
2022/06/02 02:34:56;;;;;;;14.68;7.32;;;;;;;;;;4917338;29;20102;-72
2022/06/02 02:37:28;;;;;;;12.15;7.30;;;;;;;;;;4918265;29;20048;-71
2022/06/02 02:40:13;;;;;;;9.73;6.82;;;;;;;;;;4917940;29;20044;-72
2022/06/02 02:42:51;;;;;;;10.07;6.80;;;;;;;;;;4918592;29;20066;-72
2022/06/02 02:45:19;;;;;;;10.80;7.07;;;;;;;;;;4918545;29;20129;-71
2022/06/02 02:47:54;;;;;;;11.07;7.30;;;;;;;;;;4918092;29;20123;-72
2022/06/02 02:50:33;;;;;;;13.60;7.63;;;;;;;;;;4918595;29;20123;-72
2022/06/02 02:53:03;;;;;;;9.73;6.72;;;;;;;;;;4918341;29;20052;-72
2022/06/02 02:55:33;;;;;;;11.80;7.47;;;;;;;;;;4918436;29;20096;-71
2022/06/02 02:58:02;;;;;;;11.20;7.63;;;;;;;;;;4918471;29;20091;-71
2022/06/02 03:00:38;;;;;;;13.07;7.10;;;;;;;;;;4917787;29;20039;-71
2022/06/02 03:03:24;;;;;;;11.65;6.28;;;;;;;;;;4918162;29;20044;-71
2022/06/02 03:06:09;;;;;;;12.57;7.22;;;;;;;;;;4917797;29;20052;-72
2022/06/02 03:08:58;;;;;;;18.73;7.57;;;;;;;;;;4917375;29;20051;-72
2022/06/02 03:11:33;;;;;;;11.25;6.72;;;;;;;;;;4918018;29;20107;-72
2022/06/02 03:14:05;;;;;;;12.57;6.60;;;;;;;;;;4918246;29;20504;-72
2022/06/02 03:16:33;;;;;;;9.20;6.43;;;;;;;;;;5476877;23;20827;-72
2022/06/02 03:19:21;;;;;;;15.80;6.82;;;;;;;;;;4916404;29;20051;-71
2022/06/02 03:21:55;;;;;;;11.20;7.18;;;;;;;;;;4916424;29;20051;-72
2022/06/02 03:24:21;;;;;;;9.63;6.25;;;;;;;;;;4916388;29;20051;-72
2022/06/02 03:26:57;;;;;;;11.07;6.40;;;;;;;;;;4916727;29;20123;-72
2022/06/02 03:29:41;;;;;;;7.90;6.03;;;;;;;;;;4916647;29;20101;-72
2022/06/02 03:32:31;;;;;;;9.60;5.78;;;;;;;;;;4916533;29;20040;-72
2022/06/02 03:35:10;;;;;;;9.32;5.90;;;;;;;;;;4916379;29;20717;-72
2022/06/02 03:38:09;;;;;;;7.38;5.63;;;;;;;;;;4916661;29;20052;-71
2022/06/02 03:40:35;;;;;;;11.32;6.47;;;;;;;;;;4884461;29;20040;-72
2022/06/02 03:43:08;;;;;;;7.72;6.03;;;;;;;;;;4915339;29;20451;-72
2022/06/02 03:45:37;;;;;;;9.73;6.20;;;;;;;;;;4916584;29;20056;-71
2022/06/02 03:48:22;;;;;;;12.15;6.30;;;;;;;;;;4919735;29;20048;-71
2022/06/02 03:51:07;;;;;;;10.52;5.68;;;;;;;;;;4907053;29;20041;-72
2022/06/02 03:53:57;;;;;;;12.52;6.25;;;;;;;;;;4914382;29;20051;-72
2022/06/02 03:56:42;;;;;;;10.20;6.70;;;;;;;;;;4898411;29;20043;-72
2022/06/02 03:59:14;;;;;;;9.20;6.32;;;;;;;;;;4906418;29;20272;-72
2022/06/02 04:01:41;;;;;;;11.60;6.10;;;;;;;;;;4918503;29;20044;-72
2022/06/02 04:04:24;;;;;;;12.27;6.43;;;;;;;;;;4919336;29;20464;-72
2022/06/02 04:07:00;;;;;;;7.65;5.95;;;;;;;;;;4919759;29;20534;-72
2022/06/02 04:09:44;;;;;;;9.95;5.97;;;;;;;;;;4919369;29;20048;-72
2022/06/02 04:15:01;;;;;;;13.85;6.88;;;;;;;;;;4919094;29;20104;-72
2022/06/02 04:17:27;;;;;;;10.98;6.40;;;;;;;;;;4919138;29;20415;-72
2022/06/02 04:23:14;;;;;;;12.07;6.53;;;;;;;;;;4919207;29;20031;-72
2022/06/02 04:25:59;;;;;;;11.13;6.13;;;;;;;;;;4919329;29;20051;-72
2022/06/02 04:28:34;;;;;;;7.30;6.30;;;;;;;;;;4918999;29;20372;-72
2022/06/02 04:31:19;;;;;;;18.30;6.65;;;;;;;;;;4908339;29;20044;-71
2022/06/02 04:33:51;;;;;;;10.30;6.50;;;;;;;;;;4937855;29;20479;-71
2022/06/02 04:36:36;;;;;;;9.80;6.30;;;;;;;;;;4938685;29;20495;-70
2022/06/02 04:39:10;;;;;;;15.88;6.30;;;;;;;;;;4938114;29;20498;-71
2022/06/02 04:41:39;;;;;;;9.75;6.13;;;;;;;;;;4938409;29;20039;-71
2022/06/02 04:44:24;;;;;;;10.40;6.28;;;;;;;;;;4937967;29;20134;-71
2022/06/02 04:46:56;;;;;;;11.45;6.55;;;;;;;;;;4938270;29;20044;-71
2022/06/02 04:49:38;;;;;;;8.95;5.50;;;;;;;;;;4937800;29;20078;-71
2022/06/02 04:52:13;;;;;;;10.15;5.78;;;;;;;;;;4937564;29;20043;-71
2022/06/02 04:54:43;;;;;;;6.75;5.00;;;;;;;;;;4937864;29;20051;-71
2022/06/02 04:57:18;;;;;;;10.25;5.25;;;;;;;;;;4937448;29;20048;-71
2022/06/02 04:59:49;;;;;;;10.35;5.55;;;;;;;;;;4937471;29;20126;-71
2022/06/02 05:02:18;;;;;;;12.82;6.32;;;;;;;;;;4937835;29;20043;-71
2022/06/02 05:04:51;;;;;;;7.45;5.28;;;;;;;;;;4937782;29;20083;-71
2022/06/02 05:07:47;;;;;;;7.75;5.45;;;;;;;;;;4937909;29;20126;-71
2022/06/02 05:10:32;;;;;;;8.15;5.10;;;;;;;;;;4937960;29;20051;-71
2022/06/02 05:13:17;;;;;;;10.68;5.55;;;;;;;;;;4929728;29;20051;-71
2022/06/02 05:15:58;;;;;;;12.65;5.70;;;;;;;;;;4917448;29;20123;-71
2022/06/02 05:18:43;;;;;;;8.50;5.55;;;;;;;;;;4916885;29;20095;-71
2022/06/02 05:21:27;;;;;;;11.50;5.72;;;;;;;;;;4917652;29;20051;-71
2022/06/02 05:24:03;;;;;;;10.80;5.50;;;;;;;;;;4917234;29;20056;-71
2022/06/02 05:26:32;;;;;;;13.43;5.25;;;;;;;;;;4916639;29;20039;-71
2022/06/02 05:29:08;;;;;;;18.88;6.30;;;;;;;;;;4917387;29;20052;-71
2022/06/02 05:31:55;;;;;;;26.80;7.25;;;;;;;;;;4917480;29;20068;-71
2022/06/02 05:34:29;;;;;;;31.98;6.47;;;;;;;;;;4900581;29;20052;-71
2022/06/02 05:36:55;;;;;;;27.58;6.88;;;;;;;;;;4916765;29;20055;-71
2022/06/02 05:39:24;;;;;;;32.28;7.43;;;;;;;;;;4916613;29;20050;-71
2022/06/02 05:42:06;;;;;;;39.00;6.40;;;;;;;;;;4915654;29;20445;-71
2022/06/02 05:44:39;;;;;;;25.23;6.22;;;;;;;;;;4917685;29;20504;-71
2022/06/02 05:47:09;;;;;;;23.35;6.20;;;;;;;;;;4916985;29;20483;-71
2022/06/02 05:49:35;;;;;;;16.95;6.15;;;;;;;;;;4917374;29;20047;-71
2022/06/02 05:52:22;;;;;;;15.32;5.28;;;;;;;;;;4917296;29;20048;-71
2022/06/02 05:55:06;;;;;;;10.32;5.00;;;;;;;;;;4917232;29;20111;-71
2022/06/02 05:57:32;;;;;;;10.32;4.97;;;;;;;;;;4917276;29;20523;-71
2022/06/02 06:00:20;;;;;;;10.60;4.90;;;;;;;;;;4917404;29;20032;-71
2022/06/02 06:02:46;;;;;;;12.80;4.70;;;;;;;;;;4904459;29;20066;-71
2022/06/02 06:05:14;;;;;;;8.40;4.38;;;;;;;;;;4916750;29;20078;-71
2022/06/02 06:07:55;;;;;;;9.77;4.85;;;;;;;;;;4916793;29;20047;-71
2022/06/02 06:10:32;;;;;;;13.60;4.43;;;;;;;;;;4916605;29;20040;-71
2022/06/02 06:13:19;;;;;;;11.07;4.45;;;;;;;;;;4917062;29;20071;-71
2022/06/02 06:15:50;;;;;;;8.18;4.78;;;;;;;;;;4916972;29;20088;-71
2022/06/02 06:19:28;;;;;;;8.27;4.97;;;;;;;;;;5110902;27;20396;-71
2022/06/02 06:22:12;;;;;;;8.52;4.63;;;;;;;;;;5110937;28;20430;-72
2022/06/02 06:25:03;;;;;;;7.70;5.20;;;;;;;;;;5111002;28;20040;-71
2022/06/02 06:27:29;;;;;;;;;;;;;;;;;;5111762;28;20061;-72
2022/06/02 06:30:08;;;;;;;7.60;4.72;;;;;;;;;;5111091;28;20456;-72
2022/06/02 06:32:53;;;;;;;12.80;5.80;;;;;;;;;;5110793;28;20047;-72
2022/06/02 06:35:32;;;;;;;8.70;5.90;;;;;;;;;;5110903;28;20118;-72
2022/06/02 06:38:15;;;;;;;14.38;5.80;;;;;;;;;;5110556;28;20044;-72
2022/06/02 06:41:00;;;;;;;8.88;5.00;;;;;;;;;;5110913;28;20044;-72
2022/06/02 06:43:26;;;;;;;12.43;5.55;;;;;;;;;;5110776;28;20075;-72
2022/06/02 06:46:01;;;;;;;8.02;5.10;;;;;;;;;;5110826;28;20112;-72
2022/06/02 06:48:34;;;;;;;8.35;4.80;;;;;;;;;;5110591;28;20553;-72
2022/06/02 06:51:02;;;;;;;8.10;4.90;;;;;;;;;;5109895;28;20036;-72
2022/06/02 06:53:45;;;;;;;8.85;5.47;;;;;;;;;;5109714;28;20035;-72
2022/06/02 06:56:11;;;;;;;10.55;5.35;;;;;;;;;;5108957;28;20070;-72
2022/06/02 06:58:53;;;;;;;11.95;5.43;;;;;;;;;;5109933;28;20093;-72
2022/06/02 07:01:26;;;;;;;11.00;6.13;;;;;;;;;;5107602;28;20047;-72
2022/06/02 07:03:58;;;;;;;12.10;5.40;;;;;;;;;;5110568;28;20043;-72
2022/06/02 07:06:42;;;;;;;11.68;6.07;;;;;;;;;;5109910;28;20248;-71
2022/06/02 07:09:17;;;;;;;11.27;5.55;;;;;;;;;;5110341;28;20039;-72
2022/06/02 07:14:46;;;;;;;11.68;6.28;;;;;;;;;;5109137;28;20073;-71
2022/06/02 07:17:12;;;;;;;;;;;;;;;;;;5104056;28;20059;-72
2022/06/02 07:19:42;;;;;;;10.70;5.60;;;;;;;;;;5108817;28;19999;-71
2022/06/02 07:22:17;;;;;;;11.55;5.78;;;;;;;;;;5110275;28;20126;-72
2022/06/02 07:25:02;;;;;;;13.32;5.93;;;;;;;;;;5109825;28;20040;-72
2022/06/02 07:27:28;;;;;;;12.15;6.10;;;;;;;;;;5109213;28;20054;-72
2022/06/02 07:29:54;;;;;;;10.52;6.03;;;;;;;;;;5098965;28;20585;-72
2022/06/02 07:32:39;;;;;;;15.70;5.50;;;;;;;;;;5095048;28;20055;-71
2022/06/02 07:35:24;;;;;;;12.43;5.15;;;;;;;;;;5095586;28;20044;-72
2022/06/02 07:38:11;;;;;;;9.77;5.95;;;;;;;;;;5095213;28;20083;-72
2022/06/02 07:40:37;;;;;;;9.30;5.50;;;;;;;;;;5095044;28;20551;-71
2022/06/02 07:43:09;;;;;;;9.60;5.28;;;;;;;;;;5091811;28;20055;-70
2022/06/02 07:45:44;;;;;;;9.93;5.60;;;;;;;;;;5095616;28;20035;-70
2022/06/02 07:48:10;;;;;;;8.35;5.13;;;;;;;;;;5094367;28;20178;-71
2022/06/02 07:50:39;;;;;;;14.38;5.85;;;;;;;;;;5095484;28;20040;-72
2022/06/02 07:53:05;;;;;;;7.20;5.30;;;;;;;;;;5095783;28;20050;-72
2022/06/02 07:55:50;;;;;;;9.77;5.10;;;;;;;;;;5094929;28;20047;-72
2022/06/02 07:58:20;;;;;;;13.25;6.72;;;;;;;;;;5095752;28;20036;-72
2022/06/02 08:00:52;;;;;;;10.40;5.47;;;;;;;;;;5095699;28;20040;-72
2022/06/02 08:03:34;;;;;;;8.05;5.03;;;;;;;;;;5094033;28;20081;-72
2022/06/02 08:06:10;;;;;;;10.82;5.40;;;;;;;;;;5095652;28;20079;-72
2022/06/02 08:08:39;;;;;;;10.35;5.20;;;;;;;;;;5094671;28;20047;-72
2022/06/02 08:11:11;;;;;;;7.80;5.03;;;;;;;;;;5095153;28;20371;-73
2022/06/02 08:13:45;;;;;;;11.95;5.53;;;;;;;;;;5094382;28;20132;-72
2022/06/02 08:16:14;;;;;;;10.52;5.10;;;;;;;;;;5094525;28;20093;-72
2022/06/02 08:18:40;;;;;;;13.60;5.53;;;;;;;;;;5074132;28;20122;-72
2022/06/02 08:21:18;;;;;;;12.20;5.05;;;;;;;;;;5100786;28;20044;-72
2022/06/02 08:23:50;;;;;;;7.50;5.20;;;;;;;;;;5092911;28;20105;-73
2022/06/02 08:26:20;;;;;;;10.52;5.05;;;;;;;;;;5095368;28;20067;-73
2022/06/02 08:29:04;;;;;;;9.57;4.90;;;;;;;;;;5094629;28;20044;-72
2022/06/02 08:31:36;;;;;;;8.48;5.40;;;;;;;;;;5094346;28;20125;-73
2022/06/02 08:34:14;;;;;;;8.32;5.70;;;;;;;;;;5097401;28;20044;-73
2022/06/02 08:36:50;;;;;;;9.05;5.32;;;;;;;;;;5093210;28;20063;-73
2022/06/02 08:39:28;;;;;;;10.13;5.32;;;;;;;;;;5094284;28;20079;-73
2022/06/02 08:42:02;;;;;;;8.18;5.10;;;;;;;;;;5093601;28;20040;-73
2022/06/02 08:44:31;;;;;;;9.73;5.50;;;;;;;;;;5094832;28;20120;-73
2022/06/02 08:47:09;;;;;;;8.75;5.00;;;;;;;;;;5094240;28;20122;-73
2022/06/02 08:49:35;;;;;;;13.90;5.03;;;;;;;;;;5073966;28;20040;-73
2022/06/02 08:52:19;;;;;;;12.88;5.55;;;;;;;;;;5090668;28;20052;-74
2022/06/02 08:54:55;;;;;;;10.10;5.00;;;;;;;;;;5094086;28;20671;-73
2022/06/02 08:57:33;;;;;;;9.73;5.18;;;;;;;;;;5094074;28;20079;-73
2022/06/02 09:00:15;;;;;;;8.63;4.75;;;;;;;;;;5094236;28;20032;-73
2022/06/02 09:02:59;;;;;;;10.40;4.90;;;;;;;;;;5093439;28;20040;-73
2022/06/02 09:05:38;;;;;;;9.60;4.70;;;;;;;;;;5102151;28;20040;-74
2022/06/02 09:08:26;;;;;;;12.02;5.65;;;;;;;;;;5108754;28;20039;-74
2022/06/02 09:10:53;;;;;;;11.77;4.80;;;;;;;;;;5075353;28;20048;-73
2022/06/02 09:13:22;;;;;;;9.82;4.90;;;;;;;;;;5073955;28;20033;-74
2022/06/02 09:15:54;;;;;;;7.57;5.05;;;;;;;;;;5074841;28;20105;-74
2022/06/02 09:18:38;;;;;;;10.45;4.60;;;;;;;;;;5089104;28;20082;-75
2022/06/02 09:21:15;;;;;;;12.20;5.47;;;;;;;;;;5093562;28;20129;-75
2022/06/02 09:23:59;;;;;;;8.60;4.97;;;;;;;;;;5092593;28;20055;-75
2022/06/02 09:26:47;;;;;;;7.97;4.57;;;;;;;;;;5094881;28;20051;-77
2022/06/02 09:29:15;;;;;;;9.02;4.97;;;;;;;;;;5092598;28;20097;-76
2022/06/02 09:31:59;;;;;;;9.52;4.80;;;;;;;;;;5094611;28;20093;-74
2022/06/02 09:34:31;;;;;;;12.02;5.28;;;;;;;;;;5094203;28;20040;-75
2022/06/02 09:37:20;;;;;;;9.80;5.28;;;;;;;;;;5094405;28;20044;-76
2022/06/02 09:39:54;;;;;;;12.30;4.80;;;;;;;;;;5086790;28;20044;-75
2022/06/02 09:42:34;;;;;;;5.82;4.63;;;;;;;;;;5094715;28;20040;-76
2022/06/02 09:45:20;;;;;;;10.43;4.82;;;;;;;;;;5095012;28;20036;-76
2022/06/02 09:48:16;;;;;;;6.03;4.88;;;;;;;;;;5095106;28;20127;-75
2022/06/02 09:51:20;;;;;;;;;;;;;;;;;;;;;
2022/06/02 10:24:34;;;;;;;9.68;4.60;;;;;;;;;;5073193;28;20089;-75
2022/06/02 11:05:06;;;;;;;;;;;;;;;;;;;;;
2022/06/02 11:48:51;;;;;;;7.53;4.85;;;;;;;;;;4938946;29;20035;-75
2022/06/02 11:51:25;;;;;;;;;;;;;;;;;;4991081;28;20049;-75
2022/06/02 11:54:05;;;;;;;11.43;4.97;;;;;;;;;;5041421;28;19999;-75
2022/06/02 11:56:40;;;;;;;8.05;5.22;;;;;;;;;;5038079;28;20037;-75
2022/06/02 11:59:27;;;;;;;13.18;5.05;;;;;;;;;;5038193;28;20128;-74
2022/06/02 12:04:59;;;;;;;10.02;4.40;;;;;;;;;;5053031;28;20109;-74
2022/06/02 12:07:45;;;;;;;12.05;4.13;;;;;;;;;;5054001;28;20045;-74
2022/06/02 12:10:21;;;;;;;12.35;4.53;;;;;;;;;;5054977;28;20455;-73
2022/06/02 12:12:47;;;;;;;4.97;3.63;;;;;;;;;;5037924;28;20442;-74
2022/06/02 12:15:13;;;;;;;10.00;4.20;;;;;;;;;;5062435;28;20060;-74
2022/06/02 12:17:45;;;;;;;8.95;4.00;;;;;;;;;;5076208;28;20094;-74
2022/06/02 12:20:47;;;;;;;12.55;5.18;;;;;;;;;;5076489;28;20063;-74
2022/06/02 12:23:13;;;;;;;7.80;4.13;;;;;;;;;;5033603;28;20424;-74
2022/06/02 12:25:55;;;;;;;8.48;4.15;;;;;;;;;;5048486;28;20072;-73
2022/06/02 12:28:24;;;;;;;8.98;4.00;;;;;;;;;;5055323;28;20043;-74
2022/06/02 12:31:04;;;;;;;12.07;3.80;;;;;;;;;;5074307;28;20040;-74
2022/06/02 12:33:39;;;;;;;6.43;3.17;;;;;;;;;;5075401;28;20048;-75
2022/06/02 12:36:21;;;;;;;8.00;3.35;;;;;;;;;;5074297;28;20051;-75
2022/06/02 12:39:04;;;;;;;4.90;3.08;;;;;;;;;;5074205;28;20067;-76
2022/06/02 12:41:49;;;;;;;8.05;4.00;;;;;;;;;;5074857;28;20044;-74
2022/06/02 12:44:36;;;;;;;6.82;2.90;;;;;;;;;;5057560;28;20044;-74
2022/06/02 12:47:20;;;;;;;6.55;3.53;;;;;;;;;;5061308;28;20052;-74
2022/06/02 12:49:49;;;;;;;9.95;3.38;;;;;;;;;;5069919;28;20036;-74
2022/06/02 12:52:15;;;;;;;8.20;2.78;;;;;;;;;;5075256;28;20044;-74
2022/06/02 12:55:00;;;;;;;9.18;3.30;;;;;;;;;;5075562;28;20051;-75
2022/06/02 12:57:39;;;;;;;7.20;3.53;;;;;;;;;;5074918;28;20510;-75
2022/06/02 13:00:17;;;;;;;7.10;3.33;;;;;;;;;;5075034;28;20127;-75
2022/06/02 13:02:55;;;;;;;7.10;3.25;;;;;;;;;;5075495;28;20048;-74
2022/06/02 13:05:21;;;;;;;10.73;3.20;;;;;;;;;;5075222;28;20037;-75
2022/06/02 13:07:51;;;;;;;8.13;3.47;;;;;;;;;;5073969;28;20055;-74
2022/06/02 13:10:35;;;;;;;7.20;3.10;;;;;;;;;;5074822;28;20582;-75
2022/06/02 13:13:02;;;;;;;9.15;3.40;;;;;;;;;;5075356;28;20032;-73
2022/06/02 13:15:33;;;;;;;8.07;3.03;;;;;;;;;;5075146;28;20048;-73
2022/06/02 13:18:02;;;;;;;7.57;2.88;;;;;;;;;;5071243;28;20082;-73
2022/06/02 13:21:04;;;;;;;6.55;2.85;;;;;;;;;;5075137;28;20041;-73
2022/06/02 13:23:40;;;;;;;8.13;3.17;;;;;;;;;;5002199;28;20069;-73
2022/06/02 13:26:14;;;;;;;6.60;3.15;;;;;;;;;;5066664;28;20052;-74
2022/06/02 13:28:58;;;;;;;6.63;2.72;;;;;;;;;;5074479;28;20044;-75
2022/06/02 13:31:39;;;;;;;5.93;3.05;;;;;;;;;;5074505;28;20032;-75
2022/06/02 13:34:06;;;;;;;10.60;3.78;;;;;;;;;;5074934;28;20487;-75
2022/06/02 13:37:10;;;;;;;5.57;3.10;;;;;;;;;;5074763;28;20044;-75
2022/06/02 13:39:56;;;;;;;8.57;3.30;;;;;;;;;;5010673;28;20121;-75
2022/06/02 13:42:25;;;;;;;6.53;2.97;;;;;;;;;;5012423;28;20092;-75
2022/06/02 13:45:10;;;;;;;8.25;3.53;;;;;;;;;;5033432;28;20037;-75
2022/06/02 13:47:56;;;;;;;4.35;2.67;;;;;;;;;;5054220;28;20072;-74
2022/06/02 13:50:41;;;;;;;6.35;2.97;;;;;;;;;;5054028;28;20515;-75
2022/06/02 13:53:07;;;;;;;4.68;2.83;;;;;;;;;;5054382;28;20553;-75
2022/06/02 13:58:45;;;;;;;6.13;2.60;;;;;;;;;;5064380;28;20066;-75
2022/06/02 14:01:16;;;;;;;7.10;2.88;;;;;;;;;;5072802;28;20050;-74
2022/06/02 14:03:42;;;;;;;8.98;3.20;;;;;;;;;;5065161;28;20033;-74
2022/06/02 14:06:08;;;;;;;5.40;2.72;;;;;;;;;;5071687;28;20070;-74
2022/06/02 14:08:41;;;;;;;9.55;2.75;;;;;;;;;;5072121;28;20044;-74
2022/06/02 14:11:22;;;;;;;7.80;2.80;;;;;;;;;;5071457;28;20044;-74
2022/06/02 14:14:06;;;;;;;8.25;3.05;;;;;;;;;;5071608;28;20056;-74
2022/06/02 14:16:45;;;;;;;5.80;3.35;;;;;;;;;;5071499;28;20052;-74
2022/06/02 14:19:14;;;;;;;7.35;2.50;;;;;;;;;;5054148;28;20041;-74
2022/06/02 14:21:40;;;;;;;6.85;2.83;;;;;;;;;;5053475;28;20049;-74
2022/06/02 14:24:06;;;;;;;9.00;2.50;;;;;;;;;;5053189;28;20127;-74
2022/06/02 14:26:59;;;;;;;7.30;2.90;;;;;;;;;;5035204;28;20399;-74
2022/06/02 14:29:26;;;;;;;6.78;2.50;;;;;;;;;;5022440;28;20041;-74
2022/06/02 14:32:04;;;;;;;6.43;2.90;;;;;;;;;;5053085;28;20047;-74
2022/06/02 14:34:34;;;;;;;5.20;2.63;;;;;;;;;;5053684;28;20029;-74
2022/06/02 14:37:09;;;;;;;7.25;3.13;;;;;;;;;;5052641;28;20045;-74
2022/06/02 14:39:45;;;;;;;8.50;2.92;;;;;;;;;;5057151;28;20049;-73
2022/06/02 14:43:03;;;;;;;7.68;2.80;;;;;;;;;;5058491;28;20041;-73
2022/06/02 14:45:12;;;;;;;;;;;;;;;;;;5058079;28;20041;-73
2022/06/02 14:47:53;;;;;;;5.68;2.88;;;;;;;;;;5058187;28;19920;-73
2022/06/02 14:50:28;;;;;;;6.32;2.90;;;;;;;;;;5058297;28;20033;-73
2022/06/02 14:53:27;;;;;;;9.52;3.08;;;;;;;;;;5052594;28;20041;-74
2022/06/02 14:56:05;;;;;;;5.15;2.78;;;;;;;;;;5017646;28;20045;-74
2022/06/02 14:58:35;;;;;;;6.75;2.72;;;;;;;;;;5055599;28;20077;-74
2022/06/02 15:01:17;;;;;;;6.20;3.10;;;;;;;;;;5063549;28;20068;-73
2022/06/02 15:03:59;;;;;;;7.00;2.72;;;;;;;;;;5061817;28;20079;-75
2022/06/02 15:06:40;;;;;;;8.52;2.95;;;;;;;;;;5078060;28;20486;-74
2022/06/02 15:09:19;;;;;;;7.03;2.60;;;;;;;;;;5077553;28;20044;-75
2022/06/02 15:11:45;;;;;;;5.45;2.55;;;;;;;;;;5077367;28;20498;-75
2022/06/02 15:14:28;;;;;;;7.45;3.20;;;;;;;;;;5077777;28;20094;-75
2022/06/02 15:17:09;;;;;;;7.60;2.70;;;;;;;;;;5077350;28;20415;-75
2022/06/02 15:19:53;;;;;;;5.70;2.72;;;;;;;;;;5077816;28;20051;-75
2022/06/02 15:22:20;;;;;;;9.43;3.22;;;;;;;;;;5077477;28;20198;-74
2022/06/02 15:24:52;;;;;;;7.65;3.13;;;;;;;;;;5077915;28;20089;-75
2022/06/02 15:27:30;;;;;;;6.82;3.03;;;;;;;;;;5077886;28;20036;-74
2022/06/02 15:30:02;;;;;;;10.57;3.33;;;;;;;;;;5077897;28;20036;-75
2022/06/02 15:32:52;;;;;;;8.00;3.15;;;;;;;;;;5077291;28;20039;-75
2022/06/02 15:35:36;;;;;;;7.93;2.78;;;;;;;;;;5077643;28;20041;-74
2022/06/02 15:38:03;;;;;;;9.65;3.17;;;;;;;;;;5077619;28;20055;-75
2022/06/02 15:40:48;;;;;;;11.65;3.13;;;;;;;;;;5077402;28;20051;-75
2022/06/02 15:43:29;;;;;;;6.07;2.92;;;;;;;;;;5077565;28;20048;-75
2022/06/02 15:46:14;;;;;;;12.05;3.95;;;;;;;;;;5077039;28;20414;-75
2022/06/02 15:48:58;;;;;;;7.40;2.95;;;;;;;;;;5077073;28;20048;-75
2022/06/02 15:51:24;;;;;;;7.20;3.08;;;;;;;;;;5064689;28;20115;-74
2022/06/02 15:53:56;;;;;;;8.05;3.05;;;;;;;;;;5056855;28;20040;-76
2022/06/02 15:56:40;;;;;;;7.10;3.00;;;;;;;;;;5056951;28;20065;-76
2022/06/02 15:59:25;;;;;;;6.25;2.95;;;;;;;;;;5056981;28;20082;-76
2022/06/02 16:02:11;;;;;;;9.93;3.20;;;;;;;;;;5056362;28;20048;-75
2022/06/02 16:04:53;;;;;;;7.95;2.85;;;;;;;;;;5056897;28;20037;-75
2022/06/02 16:07:19;;;;;;;8.63;3.10;;;;;;;;;;5056279;28;20033;-75
2022/06/02 16:13:28;;;;;;;7.32;3.15;;;;;;;;;;5056197;28;20031;-76
2022/06/02 16:15:54;;;;;;;9.70;3.22;;;;;;;;;;5068246;28;20098;-75
2022/06/02 16:18:39;;;;;;;7.22;3.10;;;;;;;;;;5075835;28;20127;-74
2022/06/02 16:21:10;;;;;;;7.28;2.72;;;;;;;;;;5076651;28;20501;-75
2022/06/02 16:23:56;;;;;;;5.80;2.67;;;;;;;;;;5041768;28;20038;-75
2022/06/02 16:26:28;;;;;;;8.80;3.50;;;;;;;;;;5018256;28;20033;-74
2022/06/02 16:28:57;;;;;;;9.27;3.00;;;;;;;;;;5035446;28;20528;-75
2022/06/02 16:31:42;;;;;;;10.38;3.60;;;;;;;;;;5034780;28;20037;-76
2022/06/02 16:34:14;;;;;;;9.07;2.92;;;;;;;;;;5035582;28;20037;-75
2022/06/02 16:36:57;;;;;;;9.25;2.90;;;;;;;;;;5034973;28;20073;-75
2022/06/02 16:39:29;;;;;;;9.15;2.70;;;;;;;;;;5051056;28;20048;-74
2022/06/02 16:41:59;;;;;;;9.65;3.33;;;;;;;;;;5055480;28;20086;-75
2022/06/02 16:44:37;;;;;;;11.00;3.20;;;;;;;;;;5054306;28;20041;-75
2022/06/02 16:47:22;;;;;;;9.13;3.38;;;;;;;;;;5055020;28;20041;-75
2022/06/02 16:49:58;;;;;;;4.78;2.70;;;;;;;;;;5054283;28;20076;-75
2022/06/02 16:52:24;;;;;;;8.98;3.72;;;;;;;;;;5054784;28;20036;-75
2022/06/02 16:55:11;;;;;;;10.85;2.85;;;;;;;;;;5055055;28;20499;-75
2022/06/02 16:58:03;;;;;;;8.95;3.25;;;;;;;;;;5058370;28;20055;-76
2022/06/02 17:00:49;;;;;;;6.38;2.63;;;;;;;;;;5056195;28;20057;-74
2022/06/02 17:06:45;;;;;;;7.47;2.53;;;;;;;;;;5049264;28;20033;-74
2022/06/02 17:09:30;;;;;;;7.57;2.97;;;;;;;;;;5052276;28;20048;-73
2022/06/02 17:12:02;;;;;;;6.97;2.88;;;;;;;;;;5053634;28;20040;-74
2022/06/02 17:14:31;;;;;;;6.43;2.85;;;;;;;;;;5043371;28;20128;-75
2022/06/02 17:16:57;;;;;;;8.07;2.65;;;;;;;;;;5054276;28;20519;-73
2022/06/02 17:19:34;;;;;;;16.83;3.40;;;;;;;;;;5091005;28;20047;-74
2022/06/02 17:22:20;;;;;;;9.23;3.10;;;;;;;;;;5093606;28;20068;-74
2022/06/02 17:24:47;;;;;;;10.63;2.78;;;;;;;;;;5075525;28;20080;-74
2022/06/02 17:27:36;;;;;;;9.02;2.72;;;;;;;;;;5073992;28;20040;-75
2022/06/02 17:30:16;;;;;;;5.97;2.50;;;;;;;;;;5072253;28;20051;-74
2022/06/02 17:32:58;;;;;;;7.25;2.80;;;;;;;;;;5053492;28;20044;-74
2022/06/02 17:35:27;;;;;;;7.10;2.83;;;;;;;;;;5077487;28;20170;-75
2022/06/02 17:37:54;;;;;;;8.75;3.03;;;;;;;;;;5074745;28;20044;-77
2022/06/02 17:40:23;;;;;;;8.75;2.90;;;;;;;;;;5093847;28;20503;-77
2022/06/02 17:42:59;;;;;;;8.75;3.13;;;;;;;;;;5073526;28;20186;-75
2022/06/02 17:45:50;;;;;;;6.57;2.42;;;;;;;;;;5055934;28;20044;-75
2022/06/02 17:48:35;;;;;;;6.95;2.88;;;;;;;;;;5050830;28;20051;-77
2022/06/02 17:51:10;;;;;;;7.03;2.88;;;;;;;;;;5053799;28;20028;-75
2022/06/02 17:53:53;;;;;;;7.30;2.97;;;;;;;;;;5055039;28;20040;-75